sensor_id;sensor_type;location;lat;lon;timestamp;temperature;humidity
1644;DHT22;46825;51.99869940;8.49421771;2022-12-18T00:00:48;-5.70;99.90
1644;DHT22;46825;51.99869940;8.49421771;2022-12-18T00:01:48;-5.80;99.90
1644;DHT22;46825;51.99869940;8.49421771;2022-12-18T00:02:49;-5.90;99.90
1644;DHT22;46825;51.99869940;8.49421771;2022-12-18T00:03:51;-5.90;99.90
1644;DHT22;46825;51.99869940;8.49421771;2022-12-18T00:04:51;-5.90;99.90
1644;DHT22;46825;51.99869940;8.49421771;2022-12-18T00:05:52;-6.00;99.90
1644;DHT22;46825;51.99869940;8.49421771;2022-12-18T00:06:53;-6.00;99.90
1644;DHT22;46825;51.99869940;8.49421771;2022-12-18T00:07:54;-6.00;99.90
1644;DHT22;46825;51.99869940;8.49421771;2022-12-18T00:08:56;-6.00;99.90
1644;DHT22;46825;51.99869940;8.49421771;2022-12-18T00:09:57;-6.00;99.90
1644;DHT22;46825;51.99869940;8.49421771;2022-12-18T00:11:06;-6.00;99.90
1644;DHT22;46825;51.99869940;8.49421771;2022-12-18T00:12:07;-6.00;99.90
1644;DHT22;46825;51.99869940;8.49421771;2022-12-18T00:13:08;-5.80;99.90
1644;DHT22;46825;51.99869940;8.49421771;2022-12-18T00:14:13;-6.00;99.90
1644;DHT22;46825;51.99869940;8.49421771;2022-12-18T00:15:13;-6.00;99.90
1644;DHT22;46825;51.99869940;8.49421771;2022-12-18T00:16:17;-6.00;99.90
1644;DHT22;46825;51.99869940;8.49421771;2022-12-18T00:17:20;-6.10;99.90
1644;DHT22;46825;51.99869940;8.49421771;2022-12-18T00:18:21;-6.10;99.90
1644;DHT22;46825;51.99869940;8.49421771;2022-12-18T00:19:21;-6.10;99.90
1644;DHT22;46825;51.99869940;8.49421771;2022-12-18T00:20:22;-5.80;99.90
1644;DHT22;46825;51.99869940;8.49421771;2022-12-18T00:21:27;-6.00;99.90
1644;DHT22;46825;51.99869940;8.49421771;2022-12-18T00:22:28;-6.00;99.90
1644;DHT22;46825;51.99869940;8.49421771;2022-12-18T00:23:29;-5.90;99.90
1644;DHT22;46825;51.99869940;8.49421771;2022-12-18T00:24:30;-6.00;99.90
1644;DHT22;46825;51.99869940;8.49421771;2022-12-18T00:25:33;-5.90;99.90
1644;DHT22;46825;51.99869940;8.49421771;2022-12-18T00:26:36;-6.00;99.90
1644;DHT22;46825;51.99869940;8.49421771;2022-12-18T00:27:37;-5.80;99.90
1644;DHT22;46825;51.99869940;8.49421771;2022-12-18T00:28:38;-5.80;99.90
1644;DHT22;46825;51.99869940;8.49421771;2022-12-18T00:29:41;-5.70;99.90
1644;DHT22;46825;51.99869940;8.49421771;2022-12-18T00:30:41;-5.80;99.90
1644;DHT22;46825;51.99869940;8.49421771;2022-12-18T00:31:42;-5.80;99.90
1644;DHT22;46825;51.99869940;8.49421771;2022-12-18T00:32:43;-5.80;99.90
1644;DHT22;46825;51.99869940;8.49421771;2022-12-18T00:33:44;-5.80;99.90
1644;DHT22;46825;51.99869940;8.49421771;2022-12-18T00:34:45;-5.90;99.90
1644;DHT22;46825;51.99869940;8.49421771;2022-12-18T00:35:45;-6.00;99.90
1644;DHT22;46825;51.99869940;8.49421771;2022-12-18T00:36:47;-6.00;99.90
1644;DHT22;46825;51.99869940;8.49421771;2022-12-18T00:37:48;-5.80;99.90
1644;DHT22;46825;51.99869940;8.49421771;2022-12-18T00:38:49;-6.00;99.90
1644;DHT22;46825;51.99869940;8.49421771;2022-12-18T00:39:49;-5.90;99.90
1644;DHT22;46825;51.99869940;8.49421771;2022-12-18T00:40:50;-6.00;99.90
1644;DHT22;46825;51.99869940;8.49421771;2022-12-18T00:41:50;-6.00;99.90
1644;DHT22;46825;51.99869940;8.49421771;2022-12-18T00:43:09;-6.00;99.90
1644;DHT22;46825;51.99869940;8.49421771;2022-12-18T00:44:12;-6.00;99.90
1644;DHT22;46825;51.99869940;8.49421771;2022-12-18T00:45:13;-6.10;99.90
1644;DHT22;46825;51.99869940;8.49421771;2022-12-18T00:46:14;-6.20;99.90
1644;DHT22;46825;51.99869940;8.49421771;2022-12-18T00:47:14;-6.20;99.90
1644;DHT22;46825;51.99869940;8.49421771;2022-12-18T00:48:15;-6.20;99.90
1644;DHT22;46825;51.99869940;8.49421771;2022-12-18T00:49:17;-6.20;99.90
1644;DHT22;46825;51.99869940;8.49421771;2022-12-18T00:50:18;-6.20;99.90
1644;DHT22;46825;51.99869940;8.49421771;2022-12-18T00:51:19;-6.20;99.90
1644;DHT22;46825;51.99869940;8.49421771;2022-12-18T00:52:19;-6.20;99.90
1644;DHT22;46825;51.99869940;8.49421771;2022-12-18T00:53:20;-3.90;99.90
1644;DHT22;46825;51.99869940;8.49421771;2022-12-18T00:54:21;-6.30;99.90
1644;DHT22;46825;51.99869940;8.49421771;2022-12-18T00:55:21;-6.20;99.90
1644;DHT22;46825;51.99869940;8.49421771;2022-12-18T00:56:22;-6.30;99.90
1644;DHT22;46825;51.99869940;8.49421771;2022-12-18T00:57:23;-6.30;99.90
1644;DHT22;46825;51.99869940;8.49421771;2022-12-18T00:58:23;-6.30;99.90
1644;DHT22;46825;51.99869940;8.49421771;2022-12-18T00:59:24;-6.00;99.90
1644;DHT22;46825;51.99869940;8.49421771;2022-12-18T01:00:24;-6.20;99.90
1644;DHT22;46825;51.99869940;8.49421771;2022-12-18T01:01:25;-6.30;99.90
1644;DHT22;46825;51.99869940;8.49421771;2022-12-18T01:02:25;-6.30;99.90
1644;DHT22;46825;51.99869940;8.49421771;2022-12-18T01:03:26;-6.20;99.90
1644;DHT22;46825;51.99869940;8.49421771;2022-12-18T01:04:27;-6.20;99.90
1644;DHT22;46825;51.99869940;8.49421771;2022-12-18T01:05:27;-6.20;99.90
1644;DHT22;46825;51.99869940;8.49421771;2022-12-18T01:06:28;-6.10;99.90
1644;DHT22;46825;51.99869940;8.49421771;2022-12-18T01:07:29;-6.20;99.90
1644;DHT22;46825;51.99869940;8.49421771;2022-12-18T01:08:29;-6.20;99.90
1644;DHT22;46825;51.99869940;8.49421771;2022-12-18T01:09:30;-6.20;99.90
1644;DHT22;46825;51.99869940;8.49421771;2022-12-18T01:10:31;-6.20;99.90
1644;DHT22;46825;51.99869940;8.49421771;2022-12-18T01:11:31;-6.20;99.90
1644;DHT22;46825;51.99869940;8.49421771;2022-12-18T01:12:32;-6.20;99.90
1644;DHT22;46825;51.99869940;8.49421771;2022-12-18T01:13:33;-6.30;99.90
1644;DHT22;46825;51.99869940;8.49421771;2022-12-18T01:14:33;-6.30;99.90
1644;DHT22;46825;51.99869940;8.49421771;2022-12-18T01:15:34;-6.40;99.90
1644;DHT22;46825;51.99869940;8.49421771;2022-12-18T01:16:35;-6.40;99.90
1644;DHT22;46825;51.99869940;8.49421771;2022-12-18T01:17:35;-6.40;99.90
1644;DHT22;46825;51.99869940;8.49421771;2022-12-18T01:18:36;-6.40;99.90
1644;DHT22;46825;51.99869940;8.49421771;2022-12-18T01:19:37;-6.40;99.90
1644;DHT22;46825;51.99869940;8.49421771;2022-12-18T01:20:38;-6.40;99.90
1644;DHT22;46825;51.99869940;8.49421771;2022-12-18T01:21:38;-6.40;99.90
1644;DHT22;46825;51.99869940;8.49421771;2022-12-18T01:22:39;-6.30;99.90
1644;DHT22;46825;51.99869940;8.49421771;2022-12-18T01:23:40;-6.40;99.90
1644;DHT22;46825;51.99869940;8.49421771;2022-12-18T01:24:40;-6.30;99.90
1644;DHT22;46825;51.99869940;8.49421771;2022-12-18T01:25:41;-6.30;99.90
1644;DHT22;46825;51.99869940;8.49421771;2022-12-18T01:26:41;-6.30;99.90
1644;DHT22;46825;51.99869940;8.49421771;2022-12-18T01:27:42;-6.30;99.90
1644;DHT22;46825;51.99869940;8.49421771;2022-12-18T01:28:43;-6.30;99.90
1644;DHT22;46825;51.99869940;8.49421771;2022-12-18T01:29:44;-6.30;99.90
1644;DHT22;46825;51.99869940;8.49421771;2022-12-18T01:30:44;-6.30;99.90
1644;DHT22;46825;51.99869940;8.49421771;2022-12-18T01:31:45;-6.30;99.90
1644;DHT22;46825;51.99869940;8.49421771;2022-12-18T01:32:45;-6.20;99.90
1644;DHT22;46825;51.99869940;8.49421771;2022-12-18T01:33:50;-6.40;99.90
1644;DHT22;46825;51.99869940;8.49421771;2022-12-18T01:34:51;-6.30;99.90
1644;DHT22;46825;51.99869940;8.49421771;2022-12-18T01:35:51;-6.30;99.90
1644;DHT22;46825;51.99869940;8.49421771;2022-12-18T01:36:52;-6.30;99.90
1644;DHT22;46825;51.99869940;8.49421771;2022-12-18T01:37:56;-6.40;99.90
1644;DHT22;46825;51.99869940;8.49421771;2022-12-18T01:38:58;-6.40;99.90
1644;DHT22;46825;51.99869940;8.49421771;2022-12-18T01:39:59;-6.40;99.90
1644;DHT22;46825;51.99869940;8.49421771;2022-12-18T01:41:01;-6.40;99.90
1644;DHT22;46825;51.99869940;8.49421771;2022-12-18T01:42:12;-6.40;99.90
1644;DHT22;46825;51.99869940;8.49421771;2022-12-18T01:43:13;-6.50;99.90
1644;DHT22;46825;51.99869940;8.49421771;2022-12-18T01:45:46;-6.50;99.90
1644;DHT22;46825;51.99869940;8.49421771;2022-12-18T01:46:46;-6.60;99.90
1644;DHT22;46825;51.99869940;8.49421771;2022-12-18T01:47:52;-6.50;99.90
1644;DHT22;46825;51.99869940;8.49421771;2022-12-18T01:48:57;-6.40;99.90
1644;DHT22;46825;51.99869940;8.49421771;2022-12-18T01:50:19;-6.50;99.90
1644;DHT22;46825;51.99869940;8.49421771;2022-12-18T01:51:20;-6.50;99.90
1644;DHT22;46825;51.99869940;8.49421771;2022-12-18T01:52:22;-6.40;99.90
1644;DHT22;46825;51.99869940;8.49421771;2022-12-18T01:53:24;-6.40;99.90
1644;DHT22;46825;51.99869940;8.49421771;2022-12-18T01:54:28;-6.40;99.90
1644;DHT22;46825;51.99869940;8.49421771;2022-12-18T01:55:32;-6.40;99.90
1644;DHT22;46825;51.99869940;8.49421771;2022-12-18T01:56:35;-6.40;99.90
1644;DHT22;46825;51.99869940;8.49421771;2022-12-18T01:57:38;-6.40;99.90
1644;DHT22;46825;51.99869940;8.49421771;2022-12-18T01:58:53;-6.40;99.90
1644;DHT22;46825;51.99869940;8.49421771;2022-12-18T01:59:59;-6.30;99.90
1644;DHT22;46825;51.99869940;8.49421771;2022-12-18T02:01:01;-6.30;99.90
1644;DHT22;46825;51.99869940;8.49421771;2022-12-18T02:02:03;-6.40;99.90
1644;DHT22;46825;51.99869940;8.49421771;2022-12-18T02:03:03;-6.40;99.90
1644;DHT22;46825;51.99869940;8.49421771;2022-12-18T02:04:24;-6.40;99.90
1644;DHT22;46825;51.99869940;8.49421771;2022-12-18T02:05:45;-6.50;99.90
1644;DHT22;46825;51.99869940;8.49421771;2022-12-18T02:07:03;-6.40;99.90
1644;DHT22;46825;51.99869940;8.49421771;2022-12-18T02:08:21;-6.40;99.90
1644;DHT22;46825;51.99869940;8.49421771;2022-12-18T02:09:38;-6.50;99.90
1644;DHT22;46825;51.99869940;8.49421771;2022-12-18T02:11:56;-6.30;99.90
1644;DHT22;46825;51.99869940;8.49421771;2022-12-18T02:13:18;-6.40;99.90
1644;DHT22;46825;51.99869940;8.49421771;2022-12-18T02:14:48;-6.50;99.90
1644;DHT22;46825;51.99869940;8.49421771;2022-12-18T02:17:47;-6.40;99.90
1644;DHT22;46825;51.99869940;8.49421771;2022-12-18T02:18:54;-6.40;99.90
1644;DHT22;46825;51.99869940;8.49421771;2022-12-18T02:25:21;-6.60;99.90
1644;DHT22;46825;51.99869940;8.49421771;2022-12-18T02:27:29;-6.50;99.90
1644;DHT22;46825;51.99869940;8.49421771;2022-12-18T02:28:36;-6.50;99.90
1644;DHT22;46825;51.99869940;8.49421771;2022-12-18T02:30:05;-6.50;99.90
1644;DHT22;46825;51.99869940;8.49421771;2022-12-18T02:31:10;-6.40;99.90
1644;DHT22;46825;51.99869940;8.49421771;2022-12-18T02:32:16;-6.50;99.90
1644;DHT22;46825;51.99869940;8.49421771;2022-12-18T02:33:19;-6.40;99.90
1644;DHT22;46825;51.99869940;8.49421771;2022-12-18T02:34:23;-6.40;99.90
1644;DHT22;46825;51.99869940;8.49421771;2022-12-18T02:35:28;-6.50;99.90
1644;DHT22;46825;51.99869940;8.49421771;2022-12-18T02:36:31;-6.50;99.90
1644;DHT22;46825;51.99869940;8.49421771;2022-12-18T02:37:34;-6.40;99.90
1644;DHT22;46825;51.99869940;8.49421771;2022-12-18T02:38:36;-6.50;99.90
1644;DHT22;46825;51.99869940;8.49421771;2022-12-18T02:39:38;-6.50;99.90
1644;DHT22;46825;51.99869940;8.49421771;2022-12-18T02:40:40;-6.50;99.90
1644;DHT22;46825;51.99869940;8.49421771;2022-12-18T02:41:42;-6.50;99.90
1644;DHT22;46825;51.99869940;8.49421771;2022-12-18T02:42:43;-6.60;99.90
1644;DHT22;46825;51.99869940;8.49421771;2022-12-18T02:43:55;-6.70;99.90
1644;DHT22;46825;51.99869940;8.49421771;2022-12-18T02:44:56;-6.80;99.90
1644;DHT22;46825;51.99869940;8.49421771;2022-12-18T02:45:59;-6.80;99.90
1644;DHT22;46825;51.99869940;8.49421771;2022-12-18T02:47:01;-6.80;99.90
1644;DHT22;46825;51.99869940;8.49421771;2022-12-18T02:48:01;-6.90;99.90
1644;DHT22;46825;51.99869940;8.49421771;2022-12-18T02:49:30;-6.80;99.90
1644;DHT22;46825;51.99869940;8.49421771;2022-12-18T02:50:38;-6.90;99.90
1644;DHT22;46825;51.99869940;8.49421771;2022-12-18T02:51:50;-6.90;99.90
1644;DHT22;46825;51.99869940;8.49421771;2022-12-18T02:53:19;-6.80;99.90
1644;DHT22;46825;51.99869940;8.49421771;2022-12-18T02:56:02;-6.80;99.90
1644;DHT22;46825;51.99869940;8.49421771;2022-12-18T02:57:23;-6.90;99.90
1644;DHT22;46825;51.99869940;8.49421771;2022-12-18T02:59:04;-6.80;99.90
1644;DHT22;46825;51.99869940;8.49421771;2022-12-18T03:00:11;-6.80;99.90
1644;DHT22;46825;51.99869940;8.49421771;2022-12-18T03:02:53;-6.80;99.90
1644;DHT22;46825;51.99869940;8.49421771;2022-12-18T03:04:04;-6.90;99.90
1644;DHT22;46825;51.99869940;8.49421771;2022-12-18T03:05:13;-6.80;99.90
1644;DHT22;46825;51.99869940;8.49421771;2022-12-18T03:06:27;-6.80;99.90
1644;DHT22;46825;51.99869940;8.49421771;2022-12-18T03:09:02;-6.90;99.90
1644;DHT22;46825;51.99869940;8.49421771;2022-12-18T03:10:06;-6.90;99.90
1644;DHT22;46825;51.99869940;8.49421771;2022-12-18T03:11:10;-7.00;99.90
1644;DHT22;46825;51.99869940;8.49421771;2022-12-18T03:12:30;-7.20;99.90
1644;DHT22;46825;51.99869940;8.49421771;2022-12-18T03:13:39;-7.10;99.90
1644;DHT22;46825;51.99869940;8.49421771;2022-12-18T03:14:42;-7.20;99.90
1644;DHT22;46825;51.99869940;8.49421771;2022-12-18T03:15:51;-4.80;99.90
1644;DHT22;46825;51.99869940;8.49421771;2022-12-18T03:16:54;-6.80;99.90
1644;DHT22;46825;51.99869940;8.49421771;2022-12-18T03:18:27;-7.20;99.90
1644;DHT22;46825;51.99869940;8.49421771;2022-12-18T03:19:32;-7.20;99.90
1644;DHT22;46825;51.99869940;8.49421771;2022-12-18T03:20:34;-7.20;99.90
1644;DHT22;46825;51.99869940;8.49421771;2022-12-18T03:21:43;-7.20;99.90
1644;DHT22;46825;51.99869940;8.49421771;2022-12-18T03:22:50;-7.20;99.90
1644;DHT22;46825;51.99869940;8.49421771;2022-12-18T03:23:52;-7.10;99.90
1644;DHT22;46825;51.99869940;8.49421771;2022-12-18T03:24:55;-7.10;99.90
1644;DHT22;46825;51.99869940;8.49421771;2022-12-18T03:25:59;-7.00;99.90
1644;DHT22;46825;51.99869940;8.49421771;2022-12-18T03:27:02;-7.10;99.90
1644;DHT22;46825;51.99869940;8.49421771;2022-12-18T03:28:05;-7.10;99.90
1644;DHT22;46825;51.99869940;8.49421771;2022-12-18T03:29:36;-7.10;99.90
1644;DHT22;46825;51.99869940;8.49421771;2022-12-18T03:30:40;-7.10;99.90
1644;DHT22;46825;51.99869940;8.49421771;2022-12-18T03:31:43;-7.10;99.90
1644;DHT22;46825;51.99869940;8.49421771;2022-12-18T03:32:57;-7.20;99.90
1644;DHT22;46825;51.99869940;8.49421771;2022-12-18T03:34:01;-7.10;99.90
1644;DHT22;46825;51.99869940;8.49421771;2022-12-18T03:35:05;-7.10;99.90
1644;DHT22;46825;51.99869940;8.49421771;2022-12-18T03:36:07;-7.20;99.90
1644;DHT22;46825;51.99869940;8.49421771;2022-12-18T03:37:08;-9.60;99.90
1644;DHT22;46825;51.99869940;8.49421771;2022-12-18T03:38:09;-7.00;99.90
1644;DHT22;46825;51.99869940;8.49421771;2022-12-18T03:39:10;-7.00;99.90
1644;DHT22;46825;51.99869940;8.49421771;2022-12-18T03:40:11;-7.00;99.90
1644;DHT22;46825;51.99869940;8.49421771;2022-12-18T03:42:38;-6.80;99.90
1644;DHT22;46825;51.99869940;8.49421771;2022-12-18T03:45:00;-6.90;99.90
1644;DHT22;46825;51.99869940;8.49421771;2022-12-18T03:46:08;-6.90;99.90
1644;DHT22;46825;51.99869940;8.49421771;2022-12-18T03:48:37;-7.00;99.90
1644;DHT22;46825;51.99869940;8.49421771;2022-12-18T03:50:15;-7.10;99.90
1644;DHT22;46825;51.99869940;8.49421771;2022-12-18T03:51:38;-7.10;99.90
1644;DHT22;46825;51.99869940;8.49421771;2022-12-18T03:52:49;-7.20;99.90
1644;DHT22;46825;51.99869940;8.49421771;2022-12-18T03:54:00;-7.10;99.90
1644;DHT22;46825;51.99869940;8.49421771;2022-12-18T03:55:03;-6.80;99.90
1644;DHT22;46825;51.99869940;8.49421771;2022-12-18T03:56:05;-7.10;99.90
1644;DHT22;46825;51.99869940;8.49421771;2022-12-18T03:58:29;-7.20;99.90
1644;DHT22;46825;51.99869940;8.49421771;2022-12-18T03:59:32;-7.10;99.90
1644;DHT22;46825;51.99869940;8.49421771;2022-12-18T04:00:35;-7.20;99.90
1644;DHT22;46825;51.99869940;8.49421771;2022-12-18T04:01:39;-7.20;99.90
1644;DHT22;46825;51.99869940;8.49421771;2022-12-18T04:02:52;-7.10;99.90
1644;DHT22;46825;51.99869940;8.49421771;2022-12-18T04:03:54;-7.20;99.90
1644;DHT22;46825;51.99869940;8.49421771;2022-12-18T04:04:58;-7.20;99.90
1644;DHT22;46825;51.99869940;8.49421771;2022-12-18T04:06:00;-7.00;99.90
1644;DHT22;46825;51.99869940;8.49421771;2022-12-18T04:07:02;-7.00;99.90
1644;DHT22;46825;51.99869940;8.49421771;2022-12-18T04:08:04;-7.00;99.90
1644;DHT22;46825;51.99869940;8.49421771;2022-12-18T04:09:05;-7.00;99.90
1644;DHT22;46825;51.99869940;8.49421771;2022-12-18T04:10:07;-6.80;99.90
1644;DHT22;46825;51.99869940;8.49421771;2022-12-18T04:11:08;-6.80;99.90
1644;DHT22;46825;51.99869940;8.49421771;2022-12-18T04:12:09;-6.80;99.90
1644;DHT22;46825;51.99869940;8.49421771;2022-12-18T04:13:10;-6.90;99.90
1644;DHT22;46825;51.99869940;8.49421771;2022-12-18T04:14:10;-6.80;99.90
1644;DHT22;46825;51.99869940;8.49421771;2022-12-18T04:15:12;-6.90;99.90
1644;DHT22;46825;51.99869940;8.49421771;2022-12-18T04:16:12;-6.90;99.90
1644;DHT22;46825;51.99869940;8.49421771;2022-12-18T04:17:13;-6.90;99.90
1644;DHT22;46825;51.99869940;8.49421771;2022-12-18T04:18:14;-7.00;99.90
1644;DHT22;46825;51.99869940;8.49421771;2022-12-18T04:19:14;-7.00;99.90
1644;DHT22;46825;51.99869940;8.49421771;2022-12-18T04:20:15;-7.10;99.90
1644;DHT22;46825;51.99869940;8.49421771;2022-12-18T04:21:16;-7.20;99.90
1644;DHT22;46825;51.99869940;8.49421771;2022-12-18T04:22:16;-7.10;99.90
1644;DHT22;46825;51.99869940;8.49421771;2022-12-18T04:23:17;-7.20;99.90
1644;DHT22;46825;51.99869940;8.49421771;2022-12-18T04:24:18;-7.20;99.90
1644;DHT22;46825;51.99869940;8.49421771;2022-12-18T04:25:18;-7.10;99.90
1644;DHT22;46825;51.99869940;8.49421771;2022-12-18T04:26:19;-7.10;99.90
1644;DHT22;46825;51.99869940;8.49421771;2022-12-18T04:27:19;-7.10;99.90
1644;DHT22;46825;51.99869940;8.49421771;2022-12-18T04:28:20;-7.00;99.90
1644;DHT22;46825;51.99869940;8.49421771;2022-12-18T04:29:21;-6.80;99.90
1644;DHT22;46825;51.99869940;8.49421771;2022-12-18T04:30:21;-6.80;99.90
1644;DHT22;46825;51.99869940;8.49421771;2022-12-18T04:31:22;-6.80;99.90
1644;DHT22;46825;51.99869940;8.49421771;2022-12-18T04:32:23;-6.90;99.90
1644;DHT22;46825;51.99869940;8.49421771;2022-12-18T04:33:23;-7.00;99.90
1644;DHT22;46825;51.99869940;8.49421771;2022-12-18T04:34:24;-7.10;99.90
1644;DHT22;46825;51.99869940;8.49421771;2022-12-18T04:35:24;-7.20;99.90
1644;DHT22;46825;51.99869940;8.49421771;2022-12-18T04:36:25;-7.20;99.90
1644;DHT22;46825;51.99869940;8.49421771;2022-12-18T04:37:26;-7.40;99.90
1644;DHT22;46825;51.99869940;8.49421771;2022-12-18T04:38:26;-7.30;99.90
1644;DHT22;46825;51.99869940;8.49421771;2022-12-18T04:39:27;-7.30;99.90
1644;DHT22;46825;51.99869940;8.49421771;2022-12-18T04:40:27;-7.30;99.90
1644;DHT22;46825;51.99869940;8.49421771;2022-12-18T04:41:28;-7.30;99.90
1644;DHT22;46825;51.99869940;8.49421771;2022-12-18T04:42:28;-7.20;99.90
1644;DHT22;46825;51.99869940;8.49421771;2022-12-18T04:43:29;-7.30;99.90
1644;DHT22;46825;51.99869940;8.49421771;2022-12-18T04:44:30;-7.30;99.90
1644;DHT22;46825;51.99869940;8.49421771;2022-12-18T04:45:31;-7.00;99.90
1644;DHT22;46825;51.99869940;8.49421771;2022-12-18T04:46:32;-7.30;99.90
1644;DHT22;46825;51.99869940;8.49421771;2022-12-18T04:47:32;-7.20;99.90
1644;DHT22;46825;51.99869940;8.49421771;2022-12-18T04:48:34;-7.20;99.90
1644;DHT22;46825;51.99869940;8.49421771;2022-12-18T04:49:35;-7.20;99.90
1644;DHT22;46825;51.99869940;8.49421771;2022-12-18T04:50:35;-7.00;99.90
1644;DHT22;46825;51.99869940;8.49421771;2022-12-18T04:51:37;-7.10;99.90
1644;DHT22;46825;51.99869940;8.49421771;2022-12-18T04:52:37;-7.20;99.90
1644;DHT22;46825;51.99869940;8.49421771;2022-12-18T04:53:38;-7.20;99.90
1644;DHT22;46825;51.99869940;8.49421771;2022-12-18T04:54:38;-7.20;99.90
1644;DHT22;46825;51.99869940;8.49421771;2022-12-18T04:55:39;-7.20;99.90
1644;DHT22;46825;51.99869940;8.49421771;2022-12-18T04:56:40;-7.20;99.90
1644;DHT22;46825;51.99869940;8.49421771;2022-12-18T04:57:40;-7.30;99.90
1644;DHT22;46825;51.99869940;8.49421771;2022-12-18T04:58:42;-7.30;99.90
1644;DHT22;46825;51.99869940;8.49421771;2022-12-18T04:59:44;-7.30;99.90
1644;DHT22;46825;51.99869940;8.49421771;2022-12-18T05:01:45;-7.40;99.90
1644;DHT22;46825;51.99869940;8.49421771;2022-12-18T05:02:46;-7.40;99.90
1644;DHT22;46825;51.99869940;8.49421771;2022-12-18T05:03:46;-7.40;99.90
1644;DHT22;46825;51.99869940;8.49421771;2022-12-18T05:04:47;-7.50;99.90
1644;DHT22;46825;51.99869940;8.49421771;2022-12-18T05:05:51;-7.40;99.90
1644;DHT22;46825;51.99869940;8.49421771;2022-12-18T05:06:52;-7.40;99.90
1644;DHT22;46825;51.99869940;8.49421771;2022-12-18T05:07:52;-7.30;99.90
1644;DHT22;46825;51.99869940;8.49421771;2022-12-18T05:08:53;-7.30;99.90
1644;DHT22;46825;51.99869940;8.49421771;2022-12-18T05:09:53;-7.30;99.90
1644;DHT22;46825;51.99869940;8.49421771;2022-12-18T05:11:05;-7.10;99.90
1644;DHT22;46825;51.99869940;8.49421771;2022-12-18T05:12:06;-7.30;99.90
1644;DHT22;46825;51.99869940;8.49421771;2022-12-18T05:13:07;-7.30;99.90
1644;DHT22;46825;51.99869940;8.49421771;2022-12-18T05:14:07;-7.30;99.90
1644;DHT22;46825;51.99869940;8.49421771;2022-12-18T05:15:08;-7.30;99.90
1644;DHT22;46825;51.99869940;8.49421771;2022-12-18T05:16:09;-7.40;99.90
1644;DHT22;46825;51.99869940;8.49421771;2022-12-18T05:17:10;-7.30;99.90
1644;DHT22;46825;51.99869940;8.49421771;2022-12-18T05:18:11;-7.20;99.90
1644;DHT22;46825;51.99869940;8.49421771;2022-12-18T05:19:11;-7.20;99.90
1644;DHT22;46825;51.99869940;8.49421771;2022-12-18T05:20:12;-7.20;99.90
1644;DHT22;46825;51.99869940;8.49421771;2022-12-18T05:21:12;-7.20;99.90
1644;DHT22;46825;51.99869940;8.49421771;2022-12-18T05:22:13;-7.10;99.90
1644;DHT22;46825;51.99869940;8.49421771;2022-12-18T05:23:13;-7.10;99.90
1644;DHT22;46825;51.99869940;8.49421771;2022-12-18T05:24:14;-7.10;99.90
1644;DHT22;46825;51.99869940;8.49421771;2022-12-18T05:25:15;-7.10;99.90
1644;DHT22;46825;51.99869940;8.49421771;2022-12-18T05:26:17;-7.10;99.90
1644;DHT22;46825;51.99869940;8.49421771;2022-12-18T05:27:18;-7.20;99.90
1644;DHT22;46825;51.99869940;8.49421771;2022-12-18T05:28:21;-7.20;99.90
1644;DHT22;46825;51.99869940;8.49421771;2022-12-18T05:29:22;-7.10;99.90
1644;DHT22;46825;51.99869940;8.49421771;2022-12-18T05:30:22;-7.20;99.90
1644;DHT22;46825;51.99869940;8.49421771;2022-12-18T05:31:23;-7.20;99.90
1644;DHT22;46825;51.99869940;8.49421771;2022-12-18T05:32:23;-7.20;99.90
1644;DHT22;46825;51.99869940;8.49421771;2022-12-18T05:33:25;-7.20;99.90
1644;DHT22;46825;51.99869940;8.49421771;2022-12-18T05:34:26;-7.20;99.90
1644;DHT22;46825;51.99869940;8.49421771;2022-12-18T05:35:27;-7.20;99.90
1644;DHT22;46825;51.99869940;8.49421771;2022-12-18T05:36:27;-7.20;99.90
1644;DHT22;46825;51.99869940;8.49421771;2022-12-18T05:37:28;-7.20;99.90
1644;DHT22;46825;51.99869940;8.49421771;2022-12-18T05:38:29;-7.00;99.90
1644;DHT22;46825;51.99869940;8.49421771;2022-12-18T05:39:31;-7.20;99.90
1644;DHT22;46825;51.99869940;8.49421771;2022-12-18T05:40:31;-7.10;99.90
1644;DHT22;46825;51.99869940;8.49421771;2022-12-18T05:41:32;-7.20;99.90
1644;DHT22;46825;51.99869940;8.49421771;2022-12-18T05:42:32;-7.10;99.90
1644;DHT22;46825;51.99869940;8.49421771;2022-12-18T05:44:38;-7.20;99.90
1644;DHT22;46825;51.99869940;8.49421771;2022-12-18T05:45:39;-7.20;99.90
1644;DHT22;46825;51.99869940;8.49421771;2022-12-18T05:46:39;-7.00;99.90
1644;DHT22;46825;51.99869940;8.49421771;2022-12-18T05:47:40;-7.10;99.90
1644;DHT22;46825;51.99869940;8.49421771;2022-12-18T05:48:41;-7.10;99.90
1644;DHT22;46825;51.99869940;8.49421771;2022-12-18T05:49:42;-7.20;99.90
1644;DHT22;46825;51.99869940;8.49421771;2022-12-18T05:50:44;-7.20;99.90
1644;DHT22;46825;51.99869940;8.49421771;2022-12-18T05:51:46;-7.30;99.90
1644;DHT22;46825;51.99869940;8.49421771;2022-12-18T05:52:46;-7.40;99.90
1644;DHT22;46825;51.99869940;8.49421771;2022-12-18T05:53:47;-7.40;99.90
1644;DHT22;46825;51.99869940;8.49421771;2022-12-18T05:54:48;-7.40;99.90
1644;DHT22;46825;51.99869940;8.49421771;2022-12-18T05:55:49;-7.30;99.90
1644;DHT22;46825;51.99869940;8.49421771;2022-12-18T05:56:49;-7.10;99.90
1644;DHT22;46825;51.99869940;8.49421771;2022-12-18T05:57:50;-7.30;99.90
1644;DHT22;46825;51.99869940;8.49421771;2022-12-18T05:58:52;-7.30;99.90
1644;DHT22;46825;51.99869940;8.49421771;2022-12-18T05:59:53;-7.30;99.90
1644;DHT22;46825;51.99869940;8.49421771;2022-12-18T06:00:54;-7.30;99.90
1644;DHT22;46825;51.99869940;8.49421771;2022-12-18T06:01:54;-7.30;99.90
1644;DHT22;46825;51.99869940;8.49421771;2022-12-18T06:02:55;-7.20;99.90
1644;DHT22;46825;51.99869940;8.49421771;2022-12-18T06:03:56;-7.10;99.90
1644;DHT22;46825;51.99869940;8.49421771;2022-12-18T06:04:56;-7.10;99.90
1644;DHT22;46825;51.99869940;8.49421771;2022-12-18T06:05:57;-7.00;99.90
1644;DHT22;46825;51.99869940;8.49421771;2022-12-18T06:06:57;-6.60;99.90
1644;DHT22;46825;51.99869940;8.49421771;2022-12-18T06:07:58;-7.10;99.90
1644;DHT22;46825;51.99869940;8.49421771;2022-12-18T06:08:58;-7.10;99.90
1644;DHT22;46825;51.99869940;8.49421771;2022-12-18T06:09:59;-6.80;99.90
1644;DHT22;46825;51.99869940;8.49421771;2022-12-18T06:10:59;-7.00;99.90
1644;DHT22;46825;51.99869940;8.49421771;2022-12-18T06:12:00;-6.90;99.90
1644;DHT22;46825;51.99869940;8.49421771;2022-12-18T06:13:01;-6.90;99.90
1644;DHT22;46825;51.99869940;8.49421771;2022-12-18T06:14:03;-6.90;99.90